sensor_id;sensor_type;location;lat;lon;timestamp;temperature;humidity
58983;DHT22;44771;49.982;8.560;2023-04-25T00:02:30;7.10;99.90
58983;DHT22;44771;49.982;8.560;2023-04-25T00:07:34;7.10;99.90
58983;DHT22;44771;49.982;8.560;2023-04-25T00:12:36;7.10;99.90
58983;DHT22;44771;49.982;8.560;2023-04-25T00:17:38;7.10;99.90
58983;DHT22;44771;49.982;8.560;2023-04-25T00:22:41;7.10;99.90
58983;DHT22;44771;49.982;8.560;2023-04-25T00:27:43;7.10;99.90
58983;DHT22;44771;49.982;8.560;2023-04-25T00:32:44;7.10;99.90
58983;DHT22;44771;49.982;8.560;2023-04-25T00:37:47;7.10;99.90
58983;DHT22;44771;49.982;8.560;2023-04-25T00:42:51;7.10;99.90
58983;DHT22;44771;49.982;8.560;2023-04-25T00:47:54;7.10;99.90
58983;DHT22;44771;49.982;8.560;2023-04-25T00:52:57;7.10;99.90
58983;DHT22;44771;49.982;8.560;2023-04-25T00:57:59;6.90;99.90
58983;DHT22;44771;49.982;8.560;2023-04-25T01:03:01;7.00;99.90
58983;DHT22;44771;49.982;8.560;2023-04-25T01:08:04;6.90;99.90
58983;DHT22;44771;49.982;8.560;2023-04-25T01:13:06;7.00;99.90
58983;DHT22;44771;49.982;8.560;2023-04-25T01:18:08;7.00;99.90
58983;DHT22;44771;49.982;8.560;2023-04-25T01:23:12;7.10;99.90
58983;DHT22;44771;49.982;8.560;2023-04-25T01:28:15;7.10;99.90
58983;DHT22;44771;49.982;8.560;2023-04-25T01:33:17;7.10;99.90
58983;DHT22;44771;49.982;8.560;2023-04-25T01:38:22;7.10;99.90
58983;DHT22;44771;49.982;8.560;2023-04-25T01:43:24;7.10;99.90
58983;DHT22;44771;49.982;8.560;2023-04-25T01:48:25;7.10;99.90
58983;DHT22;44771;49.982;8.560;2023-04-25T01:53:28;7.10;99.90
58983;DHT22;44771;49.982;8.560;2023-04-25T01:58:30;7.10;99.90
58983;DHT22;44771;49.982;8.560;2023-04-25T02:03:32;7.00;99.90
58983;DHT22;44771;49.982;8.560;2023-04-25T02:08:35;7.00;99.90
58983;DHT22;44771;49.982;8.560;2023-04-25T02:13:37;7.00;99.90
58983;DHT22;44771;49.982;8.560;2023-04-25T02:18:39;7.00;99.90
58983;DHT22;44771;49.982;8.560;2023-04-25T02:23:42;7.00;99.90
58983;DHT22;44771;49.982;8.560;2023-04-25T02:28:44;7.00;99.90
58983;DHT22;44771;49.982;8.560;2023-04-25T02:33:46;7.10;99.90
58983;DHT22;44771;49.982;8.560;2023-04-25T02:38:49;7.00;99.90
58983;DHT22;44771;49.982;8.560;2023-04-25T02:43:51;7.00;99.90
58983;DHT22;44771;49.982;8.560;2023-04-25T02:48:53;7.00;99.90
58983;DHT22;44771;49.982;8.560;2023-04-25T02:53:56;6.90;99.90
58983;DHT22;44771;49.982;8.560;2023-04-25T02:58:58;6.80;99.90
58983;DHT22;44771;49.982;8.560;2023-04-25T03:03:59;6.70;99.90
58983;DHT22;44771;49.982;8.560;2023-04-25T03:09:03;6.80;99.90
58983;DHT22;44771;49.982;8.560;2023-04-25T03:14:04;6.80;99.90
58983;DHT22;44771;49.982;8.560;2023-04-25T03:19:06;6.80;99.90
58983;DHT22;44771;49.982;8.560;2023-04-25T03:24:09;6.80;99.90
58983;DHT22;44771;49.982;8.560;2023-04-25T03:29:11;6.70;99.90
58983;DHT22;44771;49.982;8.560;2023-04-25T03:34:13;6.70;99.90
58983;DHT22;44771;49.982;8.560;2023-04-25T03:39:16;6.70;99.90
58983;DHT22;44771;49.982;8.560;2023-04-25T03:44:17;6.50;99.90
58983;DHT22;44771;49.982;8.560;2023-04-25T03:49:19;6.40;99.90
58983;DHT22;44771;49.982;8.560;2023-04-25T03:54:22;6.40;99.90
58983;DHT22;44771;49.982;8.560;2023-04-25T03:59:24;6.30;99.90
58983;DHT22;44771;49.982;8.560;2023-04-25T04:04:26;6.30;99.90
58983;DHT22;44771;49.982;8.560;2023-04-25T04:09:29;6.30;99.90
58983;DHT22;44771;49.982;8.560;2023-04-25T04:14:31;6.20;99.90
58983;DHT22;44771;49.982;8.560;2023-04-25T04:19:33;6.10;99.90
58983;DHT22;44771;49.982;8.560;2023-04-25T04:24:36;6.00;99.90
58983;DHT22;44771;49.982;8.560;2023-04-25T04:29:37;6.00;99.90
58983;DHT22;44771;49.982;8.560;2023-04-25T04:34:39;6.00;99.90
58983;DHT22;44771;49.982;8.560;2023-04-25T04:39:42;5.90;99.90
58983;DHT22;44771;49.982;8.560;2023-04-25T04:44:44;5.90;99.90
58983;DHT22;44771;49.982;8.560;2023-04-25T04:49:46;5.80;99.90
58983;DHT22;44771;49.982;8.560;2023-04-25T04:54:49;5.80;99.90
58983;DHT22;44771;49.982;8.560;2023-04-25T04:59:51;5.80;99.90
58983;DHT22;44771;49.982;8.560;2023-04-25T05:04:52;5.70;99.90
58983;DHT22;44771;49.982;8.560;2023-04-25T05:09:56;5.70;99.90
58983;DHT22;44771;49.982;8.560;2023-04-25T05:14:57;5.70;99.90
58983;DHT22;44771;49.982;8.560;2023-04-25T05:19:59;5.60;99.90
58983;DHT22;44771;49.982;8.560;2023-04-25T05:25:02;5.70;99.90
58983;DHT22;44771;49.982;8.560;2023-04-25T05:30:05;5.80;99.90
58983;DHT22;44771;49.982;8.560;2023-04-25T05:35:08;5.80;99.90
58983;DHT22;44771;49.982;8.560;2023-04-25T05:40:11;5.90;99.90
58983;DHT22;44771;49.982;8.560;2023-04-25T05:45:13;5.80;99.90
58983;DHT22;44771;49.982;8.560;2023-04-25T05:50:15;5.90;99.90
58983;DHT22;44771;49.982;8.560;2023-04-25T05:55:18;6.00;99.90
58983;DHT22;44771;49.982;8.560;2023-04-25T06:00:20;6.10;99.90
58983;DHT22;44771;49.982;8.560;2023-04-25T06:05:21;6.10;99.90
58983;DHT22;44771;49.982;8.560;2023-04-25T06:10:25;6.30;99.90
58983;DHT22;44771;49.982;8.560;2023-04-25T06:15:26;6.60;99.90
58983;DHT22;44771;49.982;8.560;2023-04-25T06:20:34;6.90;99.90
58983;DHT22;44771;49.982;8.560;2023-04-25T06:25:37;7.20;99.90
58983;DHT22;44771;49.982;8.560;2023-04-25T06:30:39;7.20;99.90
58983;DHT22;44771;49.982;8.560;2023-04-25T06:35:41;7.10;99.90
58983;DHT22;44771;49.982;8.560;2023-04-25T06:40:44;7.00;99.90
58983;DHT22;44771;49.982;8.560;2023-04-25T06:45:46;7.10;99.90
58983;DHT22;44771;49.982;8.560;2023-04-25T06:50:49;7.40;99.90
58983;DHT22;44771;49.982;8.560;2023-04-25T06:55:52;7.60;99.90
58983;DHT22;44771;49.982;8.560;2023-04-25T07:00:54;7.60;99.90
58983;DHT22;44771;49.982;8.560;2023-04-25T07:05:56;7.60;99.90
58983;DHT22;44771;49.982;8.560;2023-04-25T07:10:59;7.70;99.90
58983;DHT22;44771;49.982;8.560;2023-04-25T07:16:00;7.70;99.90
58983;DHT22;44771;49.982;8.560;2023-04-25T07:21:03;7.60;99.90
58983;DHT22;44771;49.982;8.560;2023-04-25T07:26:06;7.90;99.90
58983;DHT22;44771;49.982;8.560;2023-04-25T07:31:07;8.20;99.90
58983;DHT22;44771;49.982;8.560;2023-04-25T07:36:09;8.00;99.90
58983;DHT22;44771;49.982;8.560;2023-04-25T07:41:12;8.10;99.90
58983;DHT22;44771;49.982;8.560;2023-04-25T07:46:14;8.20;99.90
58983;DHT22;44771;49.982;8.560;2023-04-25T07:51:16;8.30;99.90
58983;DHT22;44771;49.982;8.560;2023-04-25T07:56:19;8.60;99.90
58983;DHT22;44771;49.982;8.560;2023-04-25T08:01:21;8.60;99.90
58983;DHT22;44771;49.982;8.560;2023-04-25T08:06:22;8.70;99.90
58983;DHT22;44771;49.982;8.560;2023-04-25T08:11:26;9.30;99.90
58983;DHT22;44771;49.982;8.560;2023-04-25T08:16:28;9.70;99.90
58983;DHT22;44771;49.982;8.560;2023-04-25T08:21:30;10.40;99.90
58983;DHT22;44771;49.982;8.560;2023-04-25T08:26:33;10.00;99.90
58983;DHT22;44771;49.982;8.560;2023-04-25T08:31:36;9.60;99.90
58983;DHT22;44771;49.982;8.560;2023-04-25T08:36:38;9.80;99.90
58983;DHT22;44771;49.982;8.560;2023-04-25T08:41:42;10.00;99.90
58983;DHT22;44771;49.982;8.560;2023-04-25T08:46:47;10.60;99.90
58983;DHT22;44771;49.982;8.560;2023-04-25T08:51:50;10.50;99.90
58983;DHT22;44771;49.982;8.560;2023-04-25T08:56:56;10.50;99.90
58983;DHT22;44771;49.982;8.560;2023-04-25T09:01:58;11.20;99.90
58983;DHT22;44771;49.982;8.560;2023-04-25T09:07:01;11.70;98.00
58983;DHT22;44771;49.982;8.560;2023-04-25T09:12:05;11.00;99.90
58983;DHT22;44771;49.982;8.560;2023-04-25T09:17:07;11.20;99.90
58983;DHT22;44771;49.982;8.560;2023-04-25T09:22:08;11.50;97.80
58983;DHT22;44771;49.982;8.560;2023-04-25T09:27:13;11.20;99.30
58983;DHT22;44771;49.982;8.560;2023-04-25T09:32:21;10.50;98.50
58983;DHT22;44771;49.982;8.560;2023-04-25T09:37:25;10.90;97.20
58983;DHT22;44771;49.982;8.560;2023-04-25T09:42:29;12.20;93.00
58983;DHT22;44771;49.982;8.560;2023-04-25T09:47:30;11.80;90.10
58983;DHT22;44771;49.982;8.560;2023-04-25T09:52:32;11.20;90.90
58983;DHT22;44771;49.982;8.560;2023-04-25T09:57:35;10.90;93.00
58983;DHT22;44771;49.982;8.560;2023-04-25T10:02:38;10.90;93.90
58983;DHT22;44771;49.982;8.560;2023-04-25T10:07:44;10.70;96.70
58983;DHT22;44771;49.982;8.560;2023-04-25T10:12:47;11.20;91.30
58983;DHT22;44771;49.982;8.560;2023-04-25T10:17:49;11.60;90.30
58983;DHT22;44771;49.982;8.560;2023-04-25T10:22:54;11.70;89.40
58983;DHT22;44771;49.982;8.560;2023-04-25T10:27:58;11.70;90.60
58983;DHT22;44771;49.982;8.560;2023-04-25T10:33:01;11.70;88.00
58983;DHT22;44771;49.982;8.560;2023-04-25T10:38:04;11.40;93.10
58983;DHT22;44771;49.982;8.560;2023-04-25T10:43:40;11.20;91.00
58983;DHT22;44771;49.982;8.560;2023-04-25T10:48:46;11.30;91.20
58983;DHT22;44771;49.982;8.560;2023-04-25T10:54:00;12.30;90.50
58983;DHT22;44771;49.982;8.560;2023-04-25T10:59:09;13.50;80.90
58983;DHT22;44771;49.982;8.560;2023-04-25T11:04:24;13.70;81.70
58983;DHT22;44771;49.982;8.560;2023-04-25T11:09:27;13.10;77.40
58983;DHT22;44771;49.982;8.560;2023-04-25T11:14:31;12.00;83.80
58983;DHT22;44771;49.982;8.560;2023-04-25T11:19:33;11.90;85.90
58983;DHT22;44771;49.982;8.560;2023-04-25T11:24:41;11.40;87.50
58983;DHT22;44771;49.982;8.560;2023-04-25T11:29:47;11.40;84.70
58983;DHT22;44771;49.982;8.560;2023-04-25T11:34:49;11.40;88.40
58983;DHT22;44771;49.982;8.560;2023-04-25T11:39:51;11.40;85.30
58983;DHT22;44771;49.982;8.560;2023-04-25T11:44:54;11.30;83.50
58983;DHT22;44771;49.982;8.560;2023-04-25T11:49:58;11.60;84.90
58983;DHT22;44771;49.982;8.560;2023-04-25T11:54:59;11.90;82.30
58983;DHT22;44771;49.982;8.560;2023-04-25T12:00:10;11.60;86.00
58983;DHT22;44771;49.982;8.560;2023-04-25T12:05:14;11.10;88.20
58983;DHT22;44771;49.982;8.560;2023-04-25T12:10:37;11.00;89.60
58983;DHT22;44771;49.982;8.560;2023-04-25T12:15:41;11.70;89.90
58983;DHT22;44771;49.982;8.560;2023-04-25T12:20:42;11.50;87.20
58983;DHT22;44771;49.982;8.560;2023-04-25T12:25:44;11.70;83.90
58983;DHT22;44771;49.982;8.560;2023-04-25T12:30:55;11.40;82.90
58983;DHT22;44771;49.982;8.560;2023-04-25T12:35:57;11.80;85.90
58983;DHT22;44771;49.982;8.560;2023-04-25T12:40:59;12.10;79.20
58983;DHT22;44771;49.982;8.560;2023-04-25T12:46:03;13.20;84.50
58983;DHT22;44771;49.982;8.560;2023-04-25T12:51:04;13.20;75.70
58983;DHT22;44771;49.982;8.560;2023-04-25T12:56:06;12.60;80.10
58983;DHT22;44771;49.982;8.560;2023-04-25T13:01:10;12.10;73.40
58983;DHT22;44771;49.982;8.560;2023-04-25T13:06:12;11.60;74.10
58983;DHT22;44771;49.982;8.560;2023-04-25T13:11:14;11.10;81.40
58983;DHT22;44771;49.982;8.560;2023-04-25T13:16:17;11.00;81.50
58983;DHT22;44771;49.982;8.560;2023-04-25T13:21:19;11.10;79.70
58983;DHT22;44771;49.982;8.560;2023-04-25T13:26:20;11.00;79.90
58983;DHT22;44771;49.982;8.560;2023-04-25T13:31:24;10.90;81.80
58983;DHT22;44771;49.982;8.560;2023-04-25T13:36:25;10.90;80.80
58983;DHT22;44771;49.982;8.560;2023-04-25T13:41:27;11.20;76.50
58983;DHT22;44771;49.982;8.560;2023-04-25T13:46:33;11.20;77.70
58983;DHT22;44771;49.982;8.560;2023-04-25T13:51:47;11.50;76.00
58983;DHT22;44771;49.982;8.560;2023-04-25T13:56:49;12.00;73.80
58983;DHT22;44771;49.982;8.560;2023-04-25T14:01:52;11.80;73.90
58983;DHT22;44771;49.982;8.560;2023-04-25T14:06:54;11.90;75.90
58983;DHT22;44771;49.982;8.560;2023-04-25T14:11:56;11.60;77.90
58983;DHT22;44771;49.982;8.560;2023-04-25T14:16:59;11.50;77.10
58983;DHT22;44771;49.982;8.560;2023-04-25T14:22:01;11.60;73.50
58983;DHT22;44771;49.982;8.560;2023-04-25T14:27:06;11.90;71.10
58983;DHT22;44771;49.982;8.560;2023-04-25T14:32:09;11.90;70.90
58983;DHT22;44771;49.982;8.560;2023-04-25T14:37:11;11.90;72.40
58983;DHT22;44771;49.982;8.560;2023-04-25T14:42:12;11.80;69.50
58983;DHT22;44771;49.982;8.560;2023-04-25T14:47:15;11.60;70.10
58983;DHT22;44771;49.982;8.560;2023-04-25T14:52:17;11.70;72.40
58983;DHT22;44771;49.982;8.560;2023-04-25T14:57:19;11.60;71.20
58983;DHT22;44771;49.982;8.560;2023-04-25T15:02:23;11.80;69.60
58983;DHT22;44771;49.982;8.560;2023-04-25T15:07:24;12.20;69.00
58983;DHT22;44771;49.982;8.560;2023-04-25T15:12:26;11.80;72.20
58983;DHT22;44771;49.982;8.560;2023-04-25T15:17:29;11.10;71.40
58983;DHT22;44771;49.982;8.560;2023-04-25T15:22:31;10.60;74.10
58983;DHT22;44771;49.982;8.560;2023-04-25T15:27:33;10.50;75.40
58983;DHT22;44771;49.982;8.560;2023-04-25T15:32:36;10.50;76.20
58983;DHT22;44771;49.982;8.560;2023-04-25T15:37:41;10.50;78.20
58983;DHT22;44771;49.982;8.560;2023-04-25T15:42:44;10.60;77.90
58983;DHT22;44771;49.982;8.560;2023-04-25T15:47:48;10.70;80.80
58983;DHT22;44771;49.982;8.560;2023-04-25T15:52:50;10.70;80.00
58983;DHT22;44771;49.982;8.560;2023-04-25T15:57:52;10.70;77.10
58983;DHT22;44771;49.982;8.560;2023-04-25T16:02:56;10.90;73.40
58983;DHT22;44771;49.982;8.560;2023-04-25T16:07:58;11.30;71.40
58983;DHT22;44771;49.982;8.560;2023-04-25T16:12:59;11.20;71.30
58983;DHT22;44771;49.982;8.560;2023-04-25T16:23:42;11.00;66.90
58983;DHT22;44771;49.982;8.560;2023-04-25T16:28:44;10.80;67.70
58983;DHT22;44771;49.982;8.560;2023-04-25T16:33:46;11.10;67.30
58983;DHT22;44771;49.982;8.560;2023-04-25T16:38:50;10.90;66.50
58983;DHT22;44771;49.982;8.560;2023-04-25T16:43:52;10.60;65.80
58983;DHT22;44771;49.982;8.560;2023-04-25T16:48:54;10.40;69.80
58983;DHT22;44771;49.982;8.560;2023-04-25T16:53:58;10.20;67.80
58983;DHT22;44771;49.982;8.560;2023-04-25T16:59:00;10.20;69.10
58983;DHT22;44771;49.982;8.560;2023-04-25T17:04:01;10.20;72.20
58983;DHT22;44771;49.982;8.560;2023-04-25T17:09:05;10.00;71.70
58983;DHT22;44771;49.982;8.560;2023-04-25T17:14:07;9.90;72.30
58983;DHT22;44771;49.982;8.560;2023-04-25T17:19:09;9.80;73.20
58983;DHT22;44771;49.982;8.560;2023-04-25T17:24:12;9.70;74.90
58983;DHT22;44771;49.982;8.560;2023-04-25T17:29:13;9.70;77.20
58983;DHT22;44771;49.982;8.560;2023-04-25T17:34:15;9.70;73.50
58983;DHT22;44771;49.982;8.560;2023-04-25T17:39:18;9.70;73.80
58983;DHT22;44771;49.982;8.560;2023-04-25T17:44:20;9.60;78.10
58983;DHT22;44771;49.982;8.560;2023-04-25T17:49:22;9.60;76.40
58983;DHT22;44771;49.982;8.560;2023-04-25T17:54:25;9.50;75.60
58983;DHT22;44771;49.982;8.560;2023-04-25T17:59:27;9.40;75.60
58983;DHT22;44771;49.982;8.560;2023-04-25T18:04:29;9.20;77.10
58983;DHT22;44771;49.982;8.560;2023-04-25T18:09:32;9.10;76.90
58983;DHT22;44771;49.982;8.560;2023-04-25T18:14:34;9.00;77.70
58983;DHT22;44771;49.982;8.560;2023-04-25T18:19:36;8.80;79.30
58983;DHT22;44771;49.982;8.560;2023-04-25T18:24:39;8.60;79.20
58983;DHT22;44771;49.982;8.560;2023-04-25T18:29:41;8.50;82.30
58983;DHT22;44771;49.982;8.560;2023-04-25T18:34:42;8.40;83.50
58983;DHT22;44771;49.982;8.560;2023-04-25T18:39:45;8.30;84.30
58983;DHT22;44771;49.982;8.560;2023-04-25T18:44:47;8.20;83.40
58983;DHT22;44771;49.982;8.560;2023-04-25T18:49:50;8.20;85.90
58983;DHT22;44771;49.982;8.560;2023-04-25T18:54:53;8.00;83.80
58983;DHT22;44771;49.982;8.560;2023-04-25T18:59:55;7.90;85.30
58983;DHT22;44771;49.982;8.560;2023-04-25T19:04:57;7.60;85.10
58983;DHT22;44771;49.982;8.560;2023-04-25T19:10:01;7.40;89.30
58983;DHT22;44771;49.982;8.560;2023-04-25T19:15:04;7.10;90.40
58983;DHT22;44771;49.982;8.560;2023-04-25T19:20:07;6.80;91.60
58983;DHT22;44771;49.982;8.560;2023-04-25T19:25:15;6.50;92.50
58983;DHT22;44771;49.982;8.560;2023-04-25T19:30:18;6.30;93.90
58983;DHT22;44771;49.982;8.560;2023-04-25T19:35:19;6.00;94.50
58983;DHT22;44771;49.982;8.560;2023-04-25T19:40:23;5.90;95.10
58983;DHT22;44771;49.982;8.560;2023-04-25T19:45:25;5.90;94.40
58983;DHT22;44771;49.982;8.560;2023-04-25T19:50:27;5.90;94.70
58983;DHT22;44771;49.982;8.560;2023-04-25T19:55:30;5.80;95.80
58983;DHT22;44771;49.982;8.560;2023-04-25T20:00:32;6.00;92.50
58983;DHT22;44771;49.982;8.560;2023-04-25T20:05:34;6.30;91.20
58983;DHT22;44771;49.982;8.560;2023-04-25T20:10:37;6.50;92.30
58983;DHT22;44771;49.982;8.560;2023-04-25T20:15:38;6.40;93.00
58983;DHT22;44771;49.982;8.560;2023-04-25T20:20:40;6.40;93.10
58983;DHT22;44771;49.982;8.560;2023-04-25T20:25:46;6.40;92.90
58983;DHT22;44771;49.982;8.560;2023-04-25T20:30:48;6.40;93.30
58983;DHT22;44771;49.982;8.560;2023-04-25T20:35:50;6.30;92.90
58983;DHT22;44771;49.982;8.560;2023-04-25T20:40:53;6.20;94.20
58983;DHT22;44771;49.982;8.560;2023-04-25T20:45:55;5.70;99.60
58983;DHT22;44771;49.982;8.560;2023-04-25T20:50:56;5.10;99.90
58983;DHT22;44771;49.982;8.560;2023-04-25T20:56:00;4.70;99.90
58983;DHT22;44771;49.982;8.560;2023-04-25T21:01:01;4.10;99.90
58983;DHT22;44771;49.982;8.560;2023-04-25T21:06:03;3.70;99.90
58983;DHT22;44771;49.982;8.560;2023-04-25T21:11:06;3.30;99.90
58983;DHT22;44771;49.982;8.560;2023-04-25T21:16:08;3.00;99.90
58983;DHT22;44771;49.982;8.560;2023-04-25T21:21:10;2.80;99.90
58983;DHT22;44771;49.982;8.560;2023-04-25T21:26:13;2.60;99.90
58983;DHT22;44771;49.982;8.560;2023-04-25T21:31:15;2.40;99.90
58983;DHT22;44771;49.982;8.560;2023-04-25T21:36:17;2.30;99.90
58983;DHT22;44771;49.982;8.560;2023-04-25T21:41:20;2.40;99.90
58983;DHT22;44771;49.982;8.560;2023-04-25T21:46:21;2.20;99.90
58983;DHT22;44771;49.982;8.560;2023-04-25T21:51:24;2.40;99.90
58983;DHT22;44771;49.982;8.560;2023-04-25T21:56:27;2.40;99.90
58983;DHT22;44771;49.982;8.560;2023-04-25T22:01:29;2.20;99.90
58983;DHT22;44771;49.982;8.560;2023-04-25T22:06:31;2.20;99.90
58983;DHT22;44771;49.982;8.560;2023-04-25T22:11:34;2.10;99.90
58983;DHT22;44771;49.982;8.560;2023-04-25T22:16:35;2.10;99.90
58983;DHT22;44771;49.982;8.560;2023-04-25T22:21:42;2.10;99.90
58983;DHT22;44771;49.982;8.560;2023-04-25T22:26:49;1.80;99.90
58983;DHT22;44771;49.982;8.560;2023-04-25T22:31:51;1.60;99.90
58983;DHT22;44771;49.982;8.560;2023-04-25T22:36:53;1.40;99.90
58983;DHT22;44771;49.982;8.560;2023-04-25T22:41:56;1.20;99.90
58983;DHT22;44771;49.982;8.560;2023-04-25T22:46:58;0.90;99.90
58983;DHT22;44771;49.982;8.560;2023-04-25T22:52:00;0.70;99.90
58983;DHT22;44771;49.982;8.560;2023-04-25T22:57:06;0.60;99.90
58983;DHT22;44771;49.982;8.560;2023-04-25T23:02:08;0.70;99.90
58983;DHT22;44771;49.982;8.560;2023-04-25T23:07:09;0.80;99.90
58983;DHT22;44771;49.982;8.560;2023-04-25T23:12:13;0.90;99.90
58983;DHT22;44771;49.982;8.560;2023-04-25T23:17:17;0.80;99.90
58983;DHT22;44771;49.982;8.560;2023-04-25T23:22:19;0.70;99.90
58983;DHT22;44771;49.982;8.560;2023-04-25T23:27:22;0.50;99.90
58983;DHT22;44771;49.982;8.560;2023-04-25T23:32:24;0.40;99.90
58983;DHT22;44771;49.982;8.560;2023-04-25T23:37:25;0.30;99.90
58983;DHT22;44771;49.982;8.560;2023-04-25T23:42:28;0.30;99.90
58983;DHT22;44771;49.982;8.560;2023-04-25T23:47:30;0.30;99.90
58983;DHT22;44771;49.982;8.560;2023-04-25T23:52:32;0.20;99.90
58983;DHT22;44771;49.982;8.560;2023-04-25T23:57:35;-0.10;99.90
